Time;durP1;ratioP1;P1;durP2;ratioP2;P2;SDS_P1;SDS_P2;PMS_P1;PMS_P2;Temp;Humidity;BMP_temperature;BMP_pressure;BME280_temperature;BME280_humidity;BME280_pressure;Samples;Min_cycle;Max_cycle;Signal;HPM_P1;HPM_P2
2022/10/06 00:00:28;;;;;;;12.02;2.55;;;;;;;;;;5046495;28;20053;-72
2022/10/06 00:02:58;;;;;;;5.55;2.15;;;;;;;;;;5046318;28;20052;-72
2022/10/06 00:05:29;;;;;;;8.45;2.35;;;;;;;;;;5046683;28;20052;-71
2022/10/06 00:08:00;;;;;;;7.45;2.45;;;;;;;;;;5046337;28;20045;-73
2022/10/06 00:10:30;;;;;;;8.75;2.33;;;;;;;;;;5046564;28;20045;-74
2022/10/06 00:13:01;;;;;;;5.50;2.70;;;;;;;;;;5045758;28;20504;-72
2022/10/06 00:15:32;;;;;;;9.30;3.25;;;;;;;;;;5046084;28;20056;-72
2022/10/06 00:18:03;;;;;;;8.73;2.15;;;;;;;;;;5046287;28;20061;-71
2022/10/06 00:20:32;;;;;;;11.32;2.90;;;;;;;;;;5046214;28;20059;-72
2022/10/06 00:23:03;;;;;;;7.75;2.65;;;;;;;;;;5046796;28;20057;-72
2022/10/06 00:25:35;;;;;;;9.63;2.95;;;;;;;;;;5046119;28;20045;-72
2022/10/06 00:28:05;;;;;;;9.20;2.85;;;;;;;;;;5046278;28;20058;-72
2022/10/06 00:30:35;;;;;;;8.52;3.00;;;;;;;;;;5046491;28;20040;-71
2022/10/06 00:33:05;;;;;;;8.40;3.05;;;;;;;;;;5028528;28;20060;-74
2022/10/06 00:35:35;;;;;;;6.93;3.38;;;;;;;;;;5046399;28;20041;-72
2022/10/06 00:38:06;;;;;;;11.25;4.03;;;;;;;;;;5045044;28;20412;-71
2022/10/06 00:40:45;;;;;;;10.98;3.50;;;;;;;;;;5044591;28;20435;-72
2022/10/06 00:43:43;;;;;;;9.27;4.13;;;;;;;;;;5049373;28;20049;-72
2022/10/06 00:46:43;;;;;;;9.07;3.55;;;;;;;;;;5053017;28;20503;-72
2022/10/06 00:49:22;;;;;;;6.72;3.40;;;;;;;;;;5052706;28;20049;-71
2022/10/06 00:52:01;;;;;;;9.60;3.58;;;;;;;;;;5052554;28;20041;-72
2022/10/06 00:54:32;;;;;;;7.55;3.55;;;;;;;;;;5053180;28;20500;-72
2022/10/06 00:57:03;;;;;;;8.13;3.70;;;;;;;;;;5052801;28;20541;-71
2022/10/06 00:59:35;;;;;;;8.00;3.40;;;;;;;;;;5051752;28;20405;-73
2022/10/06 01:02:15;;;;;;;7.15;3.30;;;;;;;;;;5052359;28;20048;-72
2022/10/06 01:04:49;;;;;;;6.60;3.38;;;;;;;;;;5051724;28;20053;-71
2022/10/06 01:07:21;;;;;;;7.15;3.75;;;;;;;;;;5052346;28;20044;-74
2022/10/06 01:09:54;;;;;;;9.45;3.80;;;;;;;;;;5034577;28;20061;-72
2022/10/06 01:12:26;;;;;;;12.85;3.63;;;;;;;;;;5050183;28;20045;-72
2022/10/06 01:14:57;;;;;;;8.88;3.92;;;;;;;;;;5050007;28;20052;-72
2022/10/06 01:17:46;;;;;;;9.32;3.85;;;;;;;;;;5052170;28;20056;-71
2022/10/06 01:20:19;;;;;;;9.90;3.45;;;;;;;;;;5052123;28;20504;-73
2022/10/06 01:23:05;;;;;;;8.93;3.33;;;;;;;;;;5051405;28;20052;-71
2022/10/06 01:25:36;;;;;;;11.90;3.30;;;;;;;;;;5051405;28;20064;-72
2022/10/06 01:28:08;;;;;;;6.25;3.30;;;;;;;;;;5051615;28;20056;-71
2022/10/06 01:30:51;;;;;;;11.60;3.88;;;;;;;;;;5034686;28;20045;-70
2022/10/06 01:33:23;;;;;;;17.65;4.07;;;;;;;;;;5050639;28;20053;-72
2022/10/06 01:35:55;;;;;;;7.60;3.65;;;;;;;;;;5051604;28;20052;-71
2022/10/06 01:38:25;;;;;;;9.93;4.15;;;;;;;;;;5052249;28;20049;-71
2022/10/06 01:41:00;;;;;;;;;;;;;;;;;;5051975;28;20057;-71
2022/10/06 01:43:30;;;;;;;11.45;3.92;;;;;;;;;;5050997;28;20424;-70
2022/10/06 01:46:00;;;;;;;8.45;3.88;;;;;;;;;;5050724;28;20508;-71
2022/10/06 01:48:30;;;;;;;7.65;3.80;;;;;;;;;;5052290;28;20048;-72
2022/10/06 01:51:01;;;;;;;10.10;3.90;;;;;;;;;;5050963;28;20068;-72
2022/10/06 01:53:31;;;;;;;7.25;3.42;;;;;;;;;;5051260;28;20052;-71
2022/10/06 01:56:01;;;;;;;8.98;3.88;;;;;;;;;;5048641;28;20041;-71
2022/10/06 01:58:31;;;;;;;8.63;4.30;;;;;;;;;;5031686;28;20057;-71
2022/10/06 02:01:08;;;;;;;6.82;3.72;;;;;;;;;;5048308;28;20052;-72
2022/10/06 02:03:39;;;;;;;12.18;4.15;;;;;;;;;;5049148;28;20045;-72
2022/10/06 02:06:10;;;;;;;14.75;4.50;;;;;;;;;;5047098;28;20076;-71
2022/10/06 02:08:42;;;;;;;9.43;4.00;;;;;;;;;;5047345;28;20045;-72
2022/10/06 02:11:13;;;;;;;9.40;3.92;;;;;;;;;;5048205;28;20419;-71
2022/10/06 02:13:43;;;;;;;9.27;3.95;;;;;;;;;;5047805;28;20052;-72
2022/10/06 02:16:13;;;;;;;11.00;4.00;;;;;;;;;;5047521;28;20065;-71
2022/10/06 02:18:44;;;;;;;8.07;3.60;;;;;;;;;;5047535;28;20049;-72
2022/10/06 02:21:19;;;;;;;7.60;3.85;;;;;;;;;;5048110;28;20050;-71
2022/10/06 02:23:50;;;;;;;7.38;4.55;;;;;;;;;;5049453;28;20044;-71
2022/10/06 02:26:20;;;;;;;9.95;3.97;;;;;;;;;;5048967;28;20041;-71
2022/10/06 02:28:51;;;;;;;7.78;3.70;;;;;;;;;;5047039;28;20064;-71
2022/10/06 02:31:24;;;;;;;9.05;3.83;;;;;;;;;;5047153;28;20061;-71
2022/10/06 02:33:55;;;;;;;7.53;3.70;;;;;;;;;;5046425;28;20049;-75
2022/10/06 02:36:26;;;;;;;6.88;3.72;;;;;;;;;;5047218;28;20427;-71
2022/10/06 02:38:56;;;;;;;7.65;3.72;;;;;;;;;;5047182;28;20057;-72
2022/10/06 02:41:26;;;;;;;6.55;3.70;;;;;;;;;;5048034;28;20040;-72
2022/10/06 02:43:56;;;;;;;7.25;3.55;;;;;;;;;;5047282;28;20049;-72
2022/10/06 02:46:26;;;;;;;10.55;3.78;;;;;;;;;;5048458;28;20057;-71
2022/10/06 02:48:56;;;;;;;8.35;4.22;;;;;;;;;;5047137;28;20045;-71
2022/10/06 02:51:26;;;;;;;10.85;4.05;;;;;;;;;;5046868;28;20075;-71
2022/10/06 02:53:56;;;;;;;8.10;3.70;;;;;;;;;;5046948;28;20049;-71
2022/10/06 02:56:26;;;;;;;8.20;3.40;;;;;;;;;;5047575;28;20053;-72
2022/10/06 02:58:56;;;;;;;6.57;4.20;;;;;;;;;;5046512;28;20063;-71
2022/10/06 03:01:30;;;;;;;7.28;3.67;;;;;;;;;;5046749;28;20049;-71
2022/10/06 03:04:14;;;;;;;8.60;3.88;;;;;;;;;;5046915;28;20057;-71
2022/10/06 03:06:44;;;;;;;9.73;3.60;;;;;;;;;;5046771;28;20052;-72
2022/10/06 03:09:18;;;;;;;6.30;3.50;;;;;;;;;;5046952;28;20056;-71
2022/10/06 03:11:48;;;;;;;9.55;3.85;;;;;;;;;;5046453;28;20622;-71
2022/10/06 03:14:26;;;;;;;7.20;3.63;;;;;;;;;;5046840;28;20420;-71
2022/10/06 03:16:56;;;;;;;9.88;3.45;;;;;;;;;;5047727;28;20056;-72
2022/10/06 03:19:29;;;;;;;7.13;3.65;;;;;;;;;;5046604;28;20052;-71
2022/10/06 03:22:00;;;;;;;12.10;3.85;;;;;;;;;;5046205;28;20605;-71
2022/10/06 03:24:46;;;;;;;7.75;3.70;;;;;;;;;;5046170;28;20057;-72
2022/10/06 03:27:16;;;;;;;9.13;3.45;;;;;;;;;;5046179;28;20045;-71
2022/10/06 03:29:47;;;;;;;7.70;3.50;;;;;;;;;;5045999;28;20508;-71
2022/10/06 03:32:17;;;;;;;8.50;3.47;;;;;;;;;;5046507;28;20079;-71
2022/10/06 03:34:47;;;;;;;6.97;3.28;;;;;;;;;;5046262;28;20061;-71
2022/10/06 03:37:17;;;;;;;5.55;3.47;;;;;;;;;;5045594;28;20053;-71
2022/10/06 03:39:48;;;;;;;6.88;2.95;;;;;;;;;;5045999;28;20538;-72
2022/10/06 03:42:19;;;;;;;7.13;3.78;;;;;;;;;;5045007;28;20389;-72
2022/10/06 03:44:49;;;;;;;9.13;3.47;;;;;;;;;;5045683;28;20049;-72
2022/10/06 03:47:19;;;;;;;8.18;3.45;;;;;;;;;;5046827;28;20516;-71
2022/10/06 03:49:49;;;;;;;7.90;3.53;;;;;;;;;;5045696;28;20057;-71
2022/10/06 03:52:19;;;;;;;5.70;3.28;;;;;;;;;;5046024;28;20546;-71
2022/10/06 03:54:54;;;;;;;7.15;3.38;;;;;;;;;;5045929;28;20056;-72
2022/10/06 03:57:24;;;;;;;6.28;3.50;;;;;;;;;;5045346;28;20071;-71
2022/10/06 03:59:58;;;;;;;5.55;3.47;;;;;;;;;;5045315;28;20049;-71
2022/10/06 04:02:28;;;;;;;8.27;3.28;;;;;;;;;;5050579;28;20049;-72
2022/10/06 04:05:00;;;;;;;5.20;3.10;;;;;;;;;;5046946;28;20045;-71
2022/10/06 04:07:30;;;;;;;8.18;3.55;;;;;;;;;;5045835;28;20500;-74
2022/10/06 04:10:00;;;;;;;7.65;3.42;;;;;;;;;;5044949;28;20079;-72
2022/10/06 04:12:30;;;;;;;6.80;3.33;;;;;;;;;;5045878;28;20053;-72
2022/10/06 04:15:01;;;;;;;7.47;3.33;;;;;;;;;;5045792;28;20053;-75
2022/10/06 04:17:30;;;;;;;7.00;3.60;;;;;;;;;;5045400;28;20419;-71
2022/10/06 04:20:01;;;;;;;7.13;3.92;;;;;;;;;;5046371;28;20523;-71
2022/10/06 04:22:30;;;;;;;6.43;3.42;;;;;;;;;;5044891;28;20060;-71
2022/10/06 04:25:00;;;;;;;8.15;3.20;;;;;;;;;;5029661;28;20060;-71
2022/10/06 04:27:30;;;;;;;8.55;3.15;;;;;;;;;;5045147;28;20052;-72
2022/10/06 04:30:07;;;;;;;8.93;3.50;;;;;;;;;;5045341;28;20049;-71
2022/10/06 04:32:37;;;;;;;5.60;3.17;;;;;;;;;;5046630;28;20412;-71
2022/10/06 04:35:07;;;;;;;7.28;3.15;;;;;;;;;;5045911;28;20060;-70
2022/10/06 04:37:38;;;;;;;7.57;3.83;;;;;;;;;;5045277;28;20048;-72
2022/10/06 04:40:09;;;;;;;6.10;3.30;;;;;;;;;;5045552;28;20412;-71
2022/10/06 04:42:39;;;;;;;8.02;3.67;;;;;;;;;;5029030;28;20049;-71
2022/10/06 04:45:16;;;;;;;8.43;3.80;;;;;;;;;;5044636;28;20053;-71
2022/10/06 04:47:48;;;;;;;9.25;3.75;;;;;;;;;;5044804;28;20065;-71
2022/10/06 04:50:19;;;;;;;6.53;3.72;;;;;;;;;;5045011;28;20053;-72
2022/10/06 04:53:06;;;;;;;7.13;3.83;;;;;;;;;;5045053;28;20380;-72
2022/10/06 04:55:37;;;;;;;12.45;5.45;;;;;;;;;;5044617;28;20646;-71
2022/10/06 04:58:06;;;;;;;9.43;4.80;;;;;;;;;;5046526;28;20049;-71
2022/10/06 05:00:36;;;;;;;8.82;3.47;;;;;;;;;;5044801;28;20049;-71
2022/10/06 05:03:06;;;;;;;12.55;4.43;;;;;;;;;;5046376;28;20052;-72
2022/10/06 05:05:36;;;;;;;11.13;3.92;;;;;;;;;;5045304;28;20428;-71
2022/10/06 05:08:06;;;;;;;11.13;5.32;;;;;;;;;;5044881;28;20396;-72
2022/10/06 05:10:36;;;;;;;12.02;4.68;;;;;;;;;;5046004;28;20068;-71
2022/10/06 05:13:07;;;;;;;9.25;5.30;;;;;;;;;;5045640;28;20044;-71
2022/10/06 05:15:38;;;;;;;10.52;5.00;;;;;;;;;;5045032;28;20049;-71
2022/10/06 05:18:08;;;;;;;11.02;4.70;;;;;;;;;;5044496;28;20056;-71
2022/10/06 05:20:37;;;;;;;10.30;4.70;;;;;;;;;;5043847;28;20048;-71
2022/10/06 05:23:07;;;;;;;8.25;4.53;;;;;;;;;;5044559;28;20045;-71
2022/10/06 05:25:37;;;;;;;12.95;4.38;;;;;;;;;;5046274;28;20519;-70
2022/10/06 05:28:07;;;;;;;10.73;4.78;;;;;;;;;;5046038;28;20091;-72
2022/10/06 05:30:37;;;;;;;9.80;4.28;;;;;;;;;;5046863;28;20066;-71
2022/10/06 05:33:07;;;;;;;9.60;4.38;;;;;;;;;;5048262;28;20053;-72
2022/10/06 05:35:36;;;;;;;8.02;4.05;;;;;;;;;;5048082;28;20060;-71
2022/10/06 05:38:10;;;;;;;8.80;3.78;;;;;;;;;;5047880;28;20052;-72
2022/10/06 05:40:40;;;;;;;8.98;4.07;;;;;;;;;;5048150;28;20049;-72
2022/10/06 05:43:10;;;;;;;8.68;4.15;;;;;;;;;;5047850;28;20643;-71
2022/10/06 05:45:51;;;;;;;7.35;3.88;;;;;;;;;;5047679;28;20060;-70
2022/10/06 05:48:22;;;;;;;7.25;3.67;;;;;;;;;;5048023;28;20060;-71
2022/10/06 05:51:00;;;;;;;9.80;4.03;;;;;;;;;;5048547;28;20057;-71
2022/10/06 05:53:34;;;;;;;10.57;4.22;;;;;;;;;;5048320;28;20049;-71
2022/10/06 05:56:15;;;;;;;13.23;4.28;;;;;;;;;;5047254;28;20056;-71
2022/10/06 05:58:47;;;;;;;9.15;3.97;;;;;;;;;;5048090;28;20083;-71
2022/10/06 06:01:39;;;;;;;7.32;3.83;;;;;;;;;;5047645;28;20053;-71
2022/10/06 06:04:35;;;;;;;11.25;4.75;;;;;;;;;;5047514;28;20049;-71
2022/10/06 06:07:08;;;;;;;10.07;5.13;;;;;;;;;;5047287;28;20774;-71
2022/10/06 06:09:41;;;;;;;7.80;4.13;;;;;;;;;;5047648;28;20060;-71
2022/10/06 06:12:13;;;;;;;9.40;4.70;;;;;;;;;;5047435;28;20070;-72
2022/10/06 06:17:56;;;;;;;;;;;;;;;;;;5047603;28;20048;-72
2022/10/06 06:20:27;;;;;;;7.10;3.63;;;;;;;;;;5047332;28;19939;-71
2022/10/06 06:22:56;;;;;;;7.05;3.75;;;;;;;;;;5048553;28;20633;-71
2022/10/06 06:25:28;;;;;;;8.75;3.90;;;;;;;;;;5031714;28;20044;-71
2022/10/06 06:27:58;;;;;;;7.63;3.55;;;;;;;;;;5048814;28;20441;-71
2022/10/06 06:30:29;;;;;;;8.65;3.80;;;;;;;;;;5047850;28;20504;-72
2022/10/06 06:32:59;;;;;;;8.25;3.28;;;;;;;;;;5047793;28;20499;-72
2022/10/06 06:35:28;;;;;;;8.32;4.40;;;;;;;;;;5048639;28;20411;-72
2022/10/06 06:37:59;;;;;;;12.45;4.25;;;;;;;;;;5048329;28;20380;-71
2022/10/06 06:40:30;;;;;;;7.68;4.40;;;;;;;;;;5046861;28;20071;-71
2022/10/06 06:43:00;;;;;;;7.32;3.90;;;;;;;;;;5046785;28;20058;-72
2022/10/06 06:45:38;;;;;;;12.70;4.93;;;;;;;;;;5047223;28;20057;-71
2022/10/06 06:48:31;;;;;;;12.68;4.32;;;;;;;;;;5047991;28;21005;-72
2022/10/06 06:51:03;;;;;;;11.52;4.38;;;;;;;;;;5046728;28;20532;-72
2022/10/06 06:53:34;;;;;;;7.82;4.15;;;;;;;;;;5047892;28;20045;-72
2022/10/06 06:56:05;;;;;;;7.22;3.80;;;;;;;;;;5046973;28;20049;-72
2022/10/06 06:58:35;;;;;;;8.43;4.25;;;;;;;;;;5046035;28;20077;-70
2022/10/06 07:01:13;;;;;;;8.77;4.40;;;;;;;;;;5046925;28;20060;-71
2022/10/06 07:03:47;;;;;;;8.50;5.07;;;;;;;;;;5046690;28;20408;-72
2022/10/06 07:06:29;;;;;;;10.95;4.78;;;;;;;;;;5046844;28;20072;-71
2022/10/06 07:09:03;;;;;;;9.38;4.65;;;;;;;;;;5046261;28;20057;-71
2022/10/06 07:11:39;;;;;;;7.97;4.85;;;;;;;;;;5046576;28;20535;-71
2022/10/06 07:14:17;;;;;;;10.60;4.90;;;;;;;;;;5046219;28;20845;-72
2022/10/06 07:25:21;;;;;;;10.52;4.65;;;;;;;;;;5045700;28;20520;-71
2022/10/06 07:28:02;;;;;;;9.10;4.32;;;;;;;;;;5045719;28;20052;-72
2022/10/06 07:30:37;;;;;;;9.93;4.45;;;;;;;;;;5046687;28;20053;-71
2022/10/06 07:33:20;;;;;;;7.80;4.68;;;;;;;;;;5046705;28;20057;-71
2022/10/06 07:35:52;;;;;;;10.30;4.03;;;;;;;;;;5045404;28;20516;-71
2022/10/06 07:38:24;;;;;;;8.82;4.45;;;;;;;;;;5029399;28;20071;-71
2022/10/06 07:40:57;;;;;;;9.27;4.25;;;;;;;;;;5046447;28;20108;-71
2022/10/06 07:44:03;;;;;;;11.27;4.30;;;;;;;;;;5046139;28;20538;-72
2022/10/06 07:46:37;;;;;;;11.52;4.55;;;;;;;;;;5045556;28;20068;-71
2022/10/06 07:49:16;;;;;;;9.25;4.50;;;;;;;;;;5046216;28;20047;-72
2022/10/06 07:51:47;;;;;;;9.02;4.88;;;;;;;;;;5045350;28;20497;-71
2022/10/06 07:54:18;;;;;;;9.88;5.20;;;;;;;;;;5045325;28;20056;-72
2022/10/06 07:57:14;;;;;;;12.80;4.95;;;;;;;;;;5045403;28;20088;-71
2022/10/06 07:59:44;;;;;;;10.48;4.97;;;;;;;;;;5045443;28;20052;-72
2022/10/06 08:02:17;;;;;;;8.75;4.50;;;;;;;;;;5047430;28;20419;-71
2022/10/06 08:04:47;;;;;;;14.63;5.45;;;;;;;;;;5047030;28;20056;-71
2022/10/06 08:07:19;;;;;;;10.88;4.97;;;;;;;;;;5047429;28;20045;-71
2022/10/06 08:09:49;;;;;;;9.02;5.03;;;;;;;;;;5045573;28;20053;-72
2022/10/06 08:12:36;;;;;;;8.07;4.85;;;;;;;;;;5046570;28;20155;-72
2022/10/06 08:15:10;;;;;;;8.98;4.95;;;;;;;;;;5045270;28;20076;-71
2022/10/06 08:17:40;;;;;;;9.07;4.75;;;;;;;;;;5046520;28;20044;-71
2022/10/06 08:20:12;;;;;;;11.68;5.22;;;;;;;;;;5046629;28;20057;-71
2022/10/06 08:22:42;;;;;;;10.68;5.32;;;;;;;;;;5046207;28;20496;-71
2022/10/06 08:25:12;;;;;;;13.82;5.75;;;;;;;;;;5046476;28;20047;-71
2022/10/06 08:27:43;;;;;;;12.88;5.47;;;;;;;;;;5046755;28;20578;-71
2022/10/06 08:30:16;;;;;;;11.65;4.82;;;;;;;;;;5046318;28;20056;-72
2022/10/06 08:32:46;;;;;;;9.75;5.47;;;;;;;;;;5046120;28;20056;-71
2022/10/06 08:35:16;;;;;;;14.57;6.30;;;;;;;;;;5046258;28;20445;-72
2022/10/06 08:37:47;;;;;;;12.35;6.00;;;;;;;;;;5044847;28;20048;-72
2022/10/06 08:40:17;;;;;;;23.08;6.60;;;;;;;;;;5046242;28;20060;-72
2022/10/06 08:42:51;;;;;;;12.80;5.68;;;;;;;;;;5046069;28;20045;-71
2022/10/06 08:45:39;;;;;;;11.88;5.68;;;;;;;;;;5046284;28;20484;-71
2022/10/06 08:48:14;;;;;;;15.57;6.55;;;;;;;;;;5046356;28;20041;-71
2022/10/06 08:50:59;;;;;;;14.75;7.30;;;;;;;;;;5046054;28;20048;-71
2022/10/06 08:54:02;;;;;;;15.10;7.68;;;;;;;;;;5046911;28;20064;-72
2022/10/06 08:56:47;;;;;;;16.25;7.25;;;;;;;;;;5023523;28;20061;-73
2022/10/06 08:59:17;;;;;;;17.88;7.47;;;;;;;;;;5045911;28;20234;-74
2022/10/06 09:01:50;;;;;;;17.02;8.50;;;;;;;;;;5045478;28;20076;-73
2022/10/06 09:04:30;;;;;;;22.58;8.82;;;;;;;;;;5048248;28;20120;-74
2022/10/06 09:07:07;;;;;;;15.32;7.22;;;;;;;;;;5050011;28;20040;-72
2022/10/06 09:09:47;;;;;;;16.40;8.27;;;;;;;;;;5050178;28;20056;-73
2022/10/06 09:12:31;;;;;;;19.60;8.02;;;;;;;;;;5050064;28;20048;-74
2022/10/06 09:15:20;;;;;;;19.25;7.40;;;;;;;;;;5048989;28;20052;-74
2022/10/06 09:18:01;;;;;;;17.17;7.75;;;;;;;;;;5049874;28;20056;-75
2022/10/06 09:20:42;;;;;;;16.73;7.65;;;;;;;;;;5049480;28;20045;-73
2022/10/06 09:23:46;;;;;;;13.80;7.38;;;;;;;;;;5049991;28;20393;-74
2022/10/06 09:26:30;;;;;;;17.33;7.07;;;;;;;;;;5048869;28;20432;-73
2022/10/06 09:29:00;;;;;;;13.82;6.97;;;;;;;;;;5049210;28;20045;-73
2022/10/06 09:31:36;;;;;;;19.38;7.35;;;;;;;;;;5049975;28;20047;-75
2022/10/06 09:34:27;;;;;;;12.85;7.82;;;;;;;;;;5049937;28;20057;-73
2022/10/06 09:37:01;;;;;;;20.63;9.15;;;;;;;;;;5048238;28;20059;-73
2022/10/06 09:39:37;;;;;;;19.08;9.43;;;;;;;;;;5049499;28;20052;-73
2022/10/06 09:42:25;;;;;;;;;;;;;;;;;;5032357;28;20116;-72
2022/10/06 09:45:04;;;;;;;19.45;8.77;;;;;;;;;;5048347;28;19932;-75
2022/10/06 09:47:40;;;;;;;16.25;8.13;;;;;;;;;;5049249;28;20424;-72
2022/10/06 09:50:26;;;;;;;17.02;8.18;;;;;;;;;;5048890;28;20044;-72
2022/10/06 09:53:04;;;;;;;19.85;8.38;;;;;;;;;;5049448;28;21408;-72
2022/10/06 09:55:37;;;;;;;15.15;7.95;;;;;;;;;;5049961;28;20056;-72
2022/10/06 09:58:21;;;;;;;16.38;7.90;;;;;;;;;;5048081;28;20064;-71
2022/10/06 10:01:03;;;;;;;13.88;7.38;;;;;;;;;;5048868;28;20045;-75
2022/10/06 10:03:50;;;;;;;15.38;7.85;;;;;;;;;;5049018;28;20041;-73
2022/10/06 10:06:40;;;;;;;;;;;;;;;;;;5049400;28;20040;-73
2022/10/06 10:09:30;;;;;;;14.20;7.05;;;;;;;;;;5049156;28;19920;-72
2022/10/06 10:12:30;;;;;;;15.85;7.38;;;;;;;;;;5049221;28;20522;-71
2022/10/06 10:15:02;;;;;;;;;;;;;;;;;;5040954;28;20060;-72
2022/10/06 10:17:44;;;;;;;12.73;7.90;;;;;;;;;;5048926;28;19925;-74
2022/10/06 10:20:33;;;;;;;12.32;7.10;;;;;;;;;;5046890;28;20052;-73
2022/10/06 10:23:24;;;;;;;11.30;6.57;;;;;;;;;;5048498;28;20060;-73
2022/10/06 10:26:31;;;;;;;11.23;5.93;;;;;;;;;;5048696;28;20041;-73
2022/10/06 10:29:43;;;;;;;10.43;6.07;;;;;;;;;;5048348;28;20068;-75
2022/10/06 10:32:25;;;;;;;10.77;5.75;;;;;;;;;;5048938;28;20048;-73
2022/10/06 10:35:17;;;;;;;8.55;5.35;;;;;;;;;;5048331;28;20053;-73
2022/10/06 10:38:25;;;;;;;11.50;6.05;;;;;;;;;;5043094;28;20068;-73
2022/10/06 10:41:12;;;;;;;11.70;5.60;;;;;;;;;;4995849;28;20065;-74
2022/10/06 10:43:42;;;;;;;9.73;5.80;;;;;;;;;;5027101;28;20057;-73
2022/10/06 10:46:26;;;;;;;8.80;5.43;;;;;;;;;;5028266;28;20418;-73
2022/10/06 10:49:01;;;;;;;8.85;5.65;;;;;;;;;;5028507;28;20049;-74
2022/10/06 10:52:01;;;;;;;9.13;5.05;;;;;;;;;;5027792;28;20045;-74
2022/10/06 10:54:51;;;;;;;12.30;5.05;;;;;;;;;;5026465;28;20054;-75
2022/10/06 10:57:27;;;;;;;7.78;5.13;;;;;;;;;;5028086;28;20052;-73
2022/10/06 11:00:02;;;;;;;7.50;4.65;;;;;;;;;;5028367;28;20048;-73
2022/10/06 11:02:34;;;;;;;8.77;5.38;;;;;;;;;;5027655;28;20048;-73
2022/10/06 11:05:29;;;;;;;10.35;4.90;;;;;;;;;;5027722;28;20529;-74
2022/10/06 11:08:10;;;;;;;7.25;4.53;;;;;;;;;;5027978;28;20068;-72
2022/10/06 11:10:49;;;;;;;7.70;4.72;;;;;;;;;;5027404;28;20045;-73
2022/10/06 11:13:34;;;;;;;10.18;5.10;;;;;;;;;;5027720;28;20504;-72
2022/10/06 11:16:50;;;;;;;9.32;5.88;;;;;;;;;;5027887;28;20053;-71
2022/10/06 11:19:34;;;;;;;9.00;4.70;;;;;;;;;;5026653;28;20072;-72
2022/10/06 11:22:08;;;;;;;6.47;4.38;;;;;;;;;;5027408;28;20524;-73
2022/10/06 11:25:05;;;;;;;7.00;4.40;;;;;;;;;;5027423;28;20057;-73
2022/10/06 11:27:54;;;;;;;7.55;4.32;;;;;;;;;;5025022;28;20057;-73
2022/10/06 11:30:25;;;;;;;6.70;4.40;;;;;;;;;;5026942;28;20076;-73
2022/10/06 11:33:14;;;;;;;8.30;4.90;;;;;;;;;;5027156;28;20046;-73
2022/10/06 11:35:47;;;;;;;6.10;5.00;;;;;;;;;;5026420;28;20053;-72
2022/10/06 11:38:36;;;;;;;8.30;4.97;;;;;;;;;;5027106;28;20045;-74
2022/10/06 11:41:24;;;;;;;7.60;4.72;;;;;;;;;;5027098;28;20045;-73
2022/10/06 11:44:06;;;;;;;11.32;5.50;;;;;;;;;;5027171;28;20057;-72
2022/10/06 11:46:51;;;;;;;7.07;4.93;;;;;;;;;;5026617;28;20053;-76
2022/10/06 11:49:31;;;;;;;9.48;6.22;;;;;;;;;;5026465;28;20409;-72
2022/10/06 11:52:07;;;;;;;6.68;4.60;;;;;;;;;;5026872;28;20041;-72
2022/10/06 11:54:43;;;;;;;10.00;5.57;;;;;;;;;;5027226;28;20108;-73
2022/10/06 11:57:22;;;;;;;8.98;5.07;;;;;;;;;;5026771;28;20065;-72
2022/10/06 12:00:04;;;;;;;12.75;6.15;;;;;;;;;;5026684;28;20049;-72
2022/10/06 12:02:35;;;;;;;11.07;5.68;;;;;;;;;;5026539;28;20068;-72
2022/10/06 12:05:09;;;;;;;10.20;5.28;;;;;;;;;;5026785;28;20508;-73
2022/10/06 12:08:01;;;;;;;8.48;5.53;;;;;;;;;;5026930;28;20045;-73
2022/10/06 12:10:34;;;;;;;8.48;5.30;;;;;;;;;;5026651;28;20059;-73
2022/10/06 12:13:24;;;;;;;7.25;5.32;;;;;;;;;;5026465;28;20060;-73
2022/10/06 12:16:30;;;;;;;8.43;4.97;;;;;;;;;;5027097;28;20096;-72
2022/10/06 12:19:31;;;;;;;8.15;5.10;;;;;;;;;;5027261;28;20050;-73
2022/10/06 12:22:36;;;;;;;12.25;6.32;;;;;;;;;;5026337;28;20646;-73
2022/10/06 12:25:26;;;;;;;11.70;6.45;;;;;;;;;;5026539;28;20389;-73
2022/10/06 12:28:11;;;;;;;11.35;5.78;;;;;;;;;;5026393;28;20057;-73
2022/10/06 12:31:38;;;;;;;9.10;5.82;;;;;;;;;;5026073;28;20049;-73
2022/10/06 12:34:40;;;;;;;9.60;5.95;;;;;;;;;;5023337;28;20068;-72
2022/10/06 12:37:28;;;;;;;8.75;5.72;;;;;;;;;;5023939;28;20060;-72
2022/10/06 12:40:16;;;;;;;;;;;;;;;;;;5022146;28;20057;-72
2022/10/06 12:42:46;;;;;;;14.25;10.25;;;;;;;;;;5025960;28;19925;-73
2022/10/06 12:45:16;;;;;;;9.07;5.80;;;;;;;;;;5026433;28;20489;-73
2022/10/06 12:47:46;;;;;;;11.40;7.05;;;;;;;;;;5026678;28;20500;-72
2022/10/06 12:50:24;;;;;;;13.00;6.93;;;;;;;;;;5026545;28;20077;-73
2022/10/06 12:53:04;;;;;;;14.45;8.98;;;;;;;;;;5026137;28;20049;-73
2022/10/06 12:56:01;;;;;;;12.95;7.18;;;;;;;;;;5025958;28;20049;-74
2022/10/06 12:58:33;;;;;;;14.73;8.93;;;;;;;;;;5024781;28;20385;-73
2022/10/06 13:01:12;;;;;;;12.38;8.40;;;;;;;;;;5026569;28;20501;-74
2022/10/06 13:03:50;;;;;;;17.15;10.20;;;;;;;;;;5026386;28;20045;-72
2022/10/06 13:06:25;;;;;;;13.45;7.68;;;;;;;;;;5025971;28;20413;-73
2022/10/06 13:09:12;;;;;;;13.95;7.75;;;;;;;;;;5024721;28;20060;-73
2022/10/06 13:11:42;;;;;;;13.30;7.85;;;;;;;;;;5025307;28;20056;-74
2022/10/06 13:14:15;;;;;;;15.13;10.27;;;;;;;;;;5025518;28;20046;-73
2022/10/06 13:16:46;;;;;;;12.25;7.55;;;;;;;;;;5025991;28;20053;-73
2022/10/06 13:19:28;;;;;;;10.95;7.03;;;;;;;;;;5025569;28;20034;-73
2022/10/06 13:22:02;;;;;;;12.85;6.85;;;;;;;;;;5026362;28;20057;-73
2022/10/06 13:24:32;;;;;;;13.05;7.35;;;;;;;;;;5025131;28;20397;-72
2022/10/06 13:27:03;;;;;;;12.30;7.55;;;;;;;;;;5025931;28;20057;-72
2022/10/06 13:29:33;;;;;;;12.27;7.60;;;;;;;;;;5025890;28;20042;-73
2022/10/06 13:32:15;;;;;;;12.20;7.78;;;;;;;;;;5025654;28;20045;-73
2022/10/06 13:34:45;;;;;;;12.52;8.23;;;;;;;;;;5025947;28;20049;-74
2022/10/06 13:37:15;;;;;;;16.90;7.80;;;;;;;;;;5025706;28;20050;-74
2022/10/06 13:39:45;;;;;;;15.75;9.02;;;;;;;;;;5025579;28;20049;-79
2022/10/06 13:42:20;;;;;;;13.75;8.63;;;;;;;;;;5025552;28;20080;-75
2022/10/06 13:45:02;;;;;;;15.70;9.70;;;;;;;;;;5026034;28;20056;-75
2022/10/06 13:47:33;;;;;;;16.88;9.35;;;;;;;;;;5025688;28;20057;-74
2022/10/06 13:50:17;;;;;;;16.20;8.68;;;;;;;;;;5025437;28;20061;-73
2022/10/06 13:52:49;;;;;;;13.25;9.43;;;;;;;;;;5029531;28;20050;-74
2022/10/06 13:55:30;;;;;;;9.93;7.13;;;;;;;;;;5028783;28;20049;-73
2022/10/06 13:58:00;;;;;;;12.23;6.95;;;;;;;;;;5029956;28;20049;-74
2022/10/06 14:00:55;;;;;;;11.05;6.95;;;;;;;;;;5029047;28;20048;-74
2022/10/06 14:03:34;;;;;;;11.15;7.10;;;;;;;;;;5028840;28;20575;-75
2022/10/06 14:06:17;;;;;;;11.63;6.82;;;;;;;;;;5029137;28;20041;-74
2022/10/06 14:08:56;;;;;;;12.77;6.55;;;;;;;;;;5029113;28;20045;-74
2022/10/06 14:11:28;;;;;;;10.88;6.40;;;;;;;;;;5029242;28;20053;-74
2022/10/06 14:14:02;;;;;;;12.05;6.75;;;;;;;;;;5028709;28;20049;-75
2022/10/06 14:16:32;;;;;;;10.43;7.60;;;;;;;;;;5027019;28;20045;-75
2022/10/06 14:19:04;;;;;;;9.55;6.03;;;;;;;;;;5028938;28;20046;-73
2022/10/06 14:21:43;;;;;;;10.85;6.00;;;;;;;;;;5028676;28;20053;-74
2022/10/06 14:24:19;;;;;;;10.23;6.25;;;;;;;;;;5027206;28;20420;-74
2022/10/06 14:26:49;;;;;;;12.70;6.38;;;;;;;;;;5028495;28;20037;-74
2022/10/06 14:29:21;;;;;;;12.35;6.38;;;;;;;;;;5028896;28;20053;-75
2022/10/06 14:31:51;;;;;;;7.88;5.35;;;;;;;;;;5028822;28;20053;-74
2022/10/06 14:34:21;;;;;;;10.18;5.97;;;;;;;;;;5028137;28;20050;-74
2022/10/06 14:36:51;;;;;;;10.77;5.93;;;;;;;;;;5028352;28;20424;-75
2022/10/06 14:39:21;;;;;;;10.02;5.75;;;;;;;;;;5028587;28;20370;-73
2022/10/06 14:41:51;;;;;;;10.07;5.75;;;;;;;;;;5027718;28;20389;-73
2022/10/06 14:44:20;;;;;;;10.00;5.85;;;;;;;;;;5027135;28;20440;-74
2022/10/06 14:46:51;;;;;;;9.02;5.68;;;;;;;;;;5028564;28;20057;-74
2022/10/06 14:49:20;;;;;;;11.50;6.55;;;;;;;;;;5028630;28;20053;-74
2022/10/06 14:51:54;;;;;;;9.13;6.60;;;;;;;;;;5028090;28;20057;-74
2022/10/06 14:54:24;;;;;;;10.48;6.30;;;;;;;;;;5028353;28;20049;-74
2022/10/06 14:56:54;;;;;;;9.05;6.30;;;;;;;;;;5028092;28;20424;-74
2022/10/06 14:59:25;;;;;;;11.73;6.97;;;;;;;;;;5028036;28;20049;-76
2022/10/06 15:01:55;;;;;;;9.15;5.80;;;;;;;;;;5026572;28;20049;-73
2022/10/06 15:04:26;;;;;;;8.50;5.25;;;;;;;;;;5027718;28;20057;-73
2022/10/06 15:09:45;;;;;;;9.05;5.57;;;;;;;;;;5027923;28;20038;-73
2022/10/06 15:12:15;;;;;;;5.95;4.32;;;;;;;;;;5027017;28;20050;-72
2022/10/06 15:14:44;;;;;;;7.63;4.72;;;;;;;;;;5027952;28;20500;-73
2022/10/06 15:17:14;;;;;;;8.45;5.05;;;;;;;;;;5027927;28;20527;-73
2022/10/06 15:19:44;;;;;;;8.05;4.63;;;;;;;;;;5027704;28;20045;-72
2022/10/06 15:22:14;;;;;;;6.50;4.47;;;;;;;;;;5027351;28;20053;-73
2022/10/06 15:24:49;;;;;;;8.75;5.25;;;;;;;;;;5027390;28;20042;-73
2022/10/06 15:30:12;;;;;;;6.57;4.93;;;;;;;;;;5027375;28;20516;-73
2022/10/06 15:32:42;;;;;;;6.88;4.55;;;;;;;;;;5027428;28;20057;-73
2022/10/06 15:35:12;;;;;;;5.82;4.57;;;;;;;;;;5027118;28;20057;-73
2022/10/06 15:37:42;;;;;;;6.60;4.90;;;;;;;;;;5027550;28;20491;-73
2022/10/06 15:40:12;;;;;;;9.18;4.25;;;;;;;;;;5027960;28;20064;-73
2022/10/06 15:42:42;;;;;;;8.52;4.40;;;;;;;;;;5027452;28;20056;-72
2022/10/06 15:45:11;;;;;;;8.02;4.80;;;;;;;;;;5026921;28;20125;-73
2022/10/06 15:47:42;;;;;;;7.75;4.05;;;;;;;;;;5026135;28;20065;-72